createdAt,value
2018-09-25T00:00:57.912Z,4.06
2018-09-25T00:01:57.783Z,4.08
2018-09-25T00:02:57.654Z,4.14
2018-09-25T00:03:57.526Z,4.15
2018-09-25T00:04:57.401Z,4.03
2018-09-25T00:05:57.268Z,4.04
2018-09-25T00:06:57.137Z,4.08
2018-09-25T00:07:57.006Z,4.12
2018-09-25T00:08:56.876Z,4.08
2018-09-25T00:09:56.749Z,4.06
2018-09-25T00:10:56.620Z,4.14
2018-09-25T00:11:56.489Z,4.01
2018-09-25T00:12:56.374Z,4.10
2018-09-25T00:13:56.237Z,4.10
2018-09-25T00:14:56.103Z,4.10
2018-09-25T00:15:55.972Z,4.16
2018-09-25T00:16:55.846Z,4.15
2018-09-25T00:17:55.715Z,4.16
2018-09-25T00:18:55.589Z,4.18
2018-09-25T00:19:55.457Z,4.19
2018-09-25T00:20:55.327Z,4.28
2018-09-25T00:21:55.197Z,4.29
2018-09-25T00:22:55.067Z,4.34
2018-09-25T00:23:54.940Z,4.36
2018-09-25T00:24:54.810Z,4.34
2018-09-25T00:25:54.686Z,4.29
2018-09-25T00:26:54.554Z,4.29
2018-09-25T00:27:54.423Z,4.19
2018-09-25T00:28:54.291Z,4.14
2018-09-25T00:29:54.164Z,4.14
2018-09-25T00:30:54.037Z,4.18
2018-09-25T00:31:53.905Z,4.22
2018-09-25T00:32:53.775Z,4.21
2018-09-25T00:33:53.644Z,4.33
2018-09-25T00:34:53.518Z,4.24
2018-09-25T00:35:53.388Z,4.34
2018-09-25T00:36:53.265Z,4.21
2018-09-25T00:37:53.132Z,4.07
2018-09-25T00:38:53.002Z,4.01
2018-09-25T00:39:52.871Z,3.94
2018-09-25T00:40:52.742Z,3.97
2018-09-25T00:41:52.614Z,3.98
2018-09-25T00:42:52.499Z,3.96
2018-09-25T00:43:52.355Z,4.04
2018-09-25T00:44:52.228Z,4.08
2018-09-25T00:45:52.097Z,4.00
2018-09-25T00:46:51.984Z,4.00
2018-09-25T00:47:51.841Z,4.04
2018-09-25T00:48:51.712Z,3.98
2018-09-25T00:49:51.583Z,4.06
2018-09-25T00:50:51.450Z,4.10
2018-09-25T00:51:51.322Z,4.07
2018-09-25T00:52:51.194Z,4.01
2018-09-25T00:53:51.064Z,4.15
2018-09-25T00:54:50.935Z,4.01
2018-09-25T00:55:50.804Z,4.12
2018-09-25T00:56:50.674Z,4.12
2018-09-25T00:57:50.550Z,4.08
2018-09-25T00:58:50.418Z,4.15
2018-09-25T00:59:50.291Z,4.15
2018-09-25T01:00:50.161Z,4.14
2018-09-25T01:01:50.028Z,4.22
2018-09-25T01:02:49.900Z,4.24
2018-09-25T01:03:49.771Z,4.24
2018-09-25T01:04:49.640Z,4.32
2018-09-25T01:05:49.511Z,4.26
2018-09-25T01:06:49.383Z,4.33
2018-09-25T01:07:49.254Z,4.34
2018-09-25T01:08:49.123Z,4.34
2018-09-25T01:09:48.994Z,4.34
2018-09-25T01:10:48.864Z,4.46
2018-09-25T01:11:48.737Z,4.36
2018-09-25T01:12:48.605Z,4.46
2018-09-25T01:13:48.478Z,4.39
2018-09-25T01:14:48.349Z,4.52
2018-09-25T01:15:48.218Z,4.47
2018-09-25T01:16:48.090Z,4.54
2018-09-25T01:17:47.962Z,4.52
2018-09-25T01:18:47.833Z,4.55
2018-09-25T01:19:47.704Z,4.52
2018-09-25T01:20:47.573Z,4.57
2018-09-25T01:21:47.444Z,4.51
2018-09-25T01:22:47.317Z,4.37
2018-09-25T01:23:47.186Z,4.39
2018-09-25T01:24:47.059Z,4.47
2018-09-25T01:25:46.936Z,4.46
2018-09-25T01:26:46.800Z,4.37
2018-09-25T01:27:46.671Z,4.37
2018-09-25T01:28:46.543Z,4.34
2018-09-25T01:29:46.414Z,4.22
2018-09-25T01:30:46.283Z,4.14
2018-09-25T01:31:46.156Z,4.21
2018-09-25T01:32:46.032Z,4.15
2018-09-25T01:33:45.895Z,4.14
2018-09-25T01:34:45.767Z,4.07
2018-09-25T01:35:45.637Z,3.94
2018-09-25T01:36:45.509Z,4.06
2018-09-25T01:37:45.379Z,4.08
2018-09-25T01:38:45.251Z,4.15
2018-09-25T01:39:45.120Z,4.10
2018-09-25T01:40:44.990Z,3.90
2018-09-25T01:41:44.862Z,4.00
2018-09-25T01:42:44.733Z,3.90
2018-09-25T01:43:44.602Z,3.85
2018-09-25T01:44:44.477Z,3.89
2018-09-25T01:45:44.344Z,3.97
2018-09-25T01:46:44.216Z,3.94
2018-09-25T01:47:44.084Z,4.00
2018-09-25T01:48:43.955Z,4.04
2018-09-25T01:49:43.826Z,3.97
2018-09-25T01:50:43.698Z,3.94
2018-09-25T01:51:43.566Z,3.90
2018-09-25T01:52:43.437Z,3.94
2018-09-25T01:53:43.307Z,3.89
2018-09-25T01:54:43.182Z,3.96
2018-09-25T01:55:43.049Z,3.86
2018-09-25T01:56:42.920Z,3.97
2018-09-25T01:57:42.793Z,3.88
2018-09-25T01:58:42.663Z,3.85
2018-09-25T01:59:42.532Z,3.94
2018-09-25T02:00:42.402Z,3.92
2018-09-25T02:01:42.274Z,3.80
2018-09-25T02:02:42.145Z,3.92
2018-09-25T02:03:42.015Z,3.85
2018-09-25T02:04:41.884Z,3.80
2018-09-25T02:05:41.786Z,3.83
2018-09-25T02:06:41.627Z,3.75
2018-09-25T02:07:41.499Z,3.78
2018-09-25T02:08:41.368Z,3.80
2018-09-25T02:09:41.238Z,3.89
2018-09-25T02:10:41.109Z,3.86
2018-09-25T02:11:40.981Z,3.86
2018-09-25T02:12:40.852Z,3.82
2018-09-25T02:13:40.721Z,3.86
2018-09-25T02:14:40.591Z,3.90
2018-09-25T02:15:40.462Z,4.00
2018-09-25T02:16:40.333Z,3.89
2018-09-25T02:17:40.204Z,3.89
2018-09-25T02:18:40.075Z,3.71
2018-09-25T02:19:39.945Z,3.83
2018-09-25T02:20:39.816Z,3.86
2018-09-25T02:21:39.684Z,3.89
2018-09-25T02:22:39.555Z,3.96
2018-09-25T02:23:39.427Z,3.90
2018-09-25T02:24:39.298Z,3.86
2018-09-25T02:25:39.167Z,3.88
2018-09-25T02:26:39.040Z,3.88
2018-09-25T02:27:38.910Z,3.83
2018-09-25T02:28:38.778Z,3.88
2018-09-25T02:29:38.653Z,3.97
2018-09-25T02:30:38.525Z,3.83
2018-09-25T02:31:38.392Z,3.88
2018-09-25T02:32:38.270Z,3.86
2018-09-25T02:33:38.130Z,3.89
2018-09-25T02:34:38.007Z,3.85
2018-09-25T02:35:37.873Z,3.79
2018-09-25T02:36:37.742Z,3.72
2018-09-25T02:37:37.613Z,3.78
2018-09-25T02:38:37.485Z,3.80
2018-09-25T02:39:37.353Z,3.88
2018-09-25T02:40:37.226Z,3.79
2018-09-25T02:41:37.098Z,3.79
2018-09-25T02:42:36.968Z,3.83
2018-09-25T02:43:36.835Z,3.85
2018-09-25T02:44:36.707Z,3.78
2018-09-25T02:45:36.580Z,3.89
2018-09-25T02:46:36.451Z,3.86
2018-09-25T02:47:36.320Z,3.90
2018-09-25T02:48:36.192Z,3.83
2018-09-25T02:49:36.063Z,3.85
2018-09-25T02:50:35.936Z,3.92
2018-09-25T02:51:35.803Z,3.90
2018-09-25T02:52:35.676Z,3.94
2018-09-25T02:53:35.549Z,3.98
2018-09-25T02:54:35.414Z,3.94
2018-09-25T02:55:35.284Z,3.92
2018-09-25T02:56:35.155Z,3.96
2018-09-25T02:57:35.031Z,3.90
2018-09-25T02:58:34.897Z,3.92
2018-09-25T02:59:34.766Z,3.96
2018-09-25T03:00:34.639Z,3.97
2018-09-25T03:01:34.512Z,3.88
2018-09-25T03:02:34.378Z,3.83
2018-09-25T03:03:34.248Z,3.92
2018-09-25T03:04:34.121Z,3.89
2018-09-25T03:05:33.990Z,3.76
2018-09-25T03:06:33.863Z,3.82
2018-09-25T03:07:33.730Z,3.80
2018-09-25T03:08:33.607Z,3.88
2018-09-25T03:09:33.474Z,3.85
2018-09-25T03:10:33.343Z,3.80
2018-09-25T03:11:33.216Z,3.86
2018-09-25T03:12:33.085Z,3.76
2018-09-25T03:13:32.956Z,3.83
2018-09-25T03:14:32.826Z,3.71
2018-09-25T03:15:32.698Z,3.80
2018-09-25T03:16:32.567Z,3.75
2018-09-25T03:17:32.440Z,3.83
2018-09-25T03:18:32.309Z,3.86
2018-09-25T03:19:32.180Z,3.70
2018-09-25T03:20:32.050Z,3.83
2018-09-25T03:21:31.925Z,3.88
2018-09-25T03:22:31.802Z,3.83
2018-09-25T03:23:31.663Z,3.89
2018-09-25T03:24:31.532Z,3.72
2018-09-25T03:25:31.407Z,3.92
2018-09-25T03:26:31.273Z,3.83
2018-09-25T03:27:31.144Z,3.85
2018-09-25T03:28:31.015Z,3.89
2018-09-25T03:29:30.889Z,3.86
2018-09-25T03:30:30.770Z,3.90
2018-09-25T03:31:30.627Z,3.88
2018-09-25T03:32:30.501Z,3.90
2018-09-25T03:33:30.371Z,3.86
2018-09-25T03:34:30.241Z,3.94
2018-09-25T03:35:30.122Z,3.85
2018-09-25T03:36:29.982Z,3.92
2018-09-25T03:37:29.863Z,3.85
2018-09-25T03:38:29.724Z,4.01
2018-09-25T03:39:29.598Z,3.90
2018-09-25T03:40:29.473Z,3.90
2018-09-25T03:41:29.335Z,3.92
2018-09-25T03:42:29.208Z,3.89
2018-09-25T03:43:29.103Z,3.82
2018-09-25T03:44:29.004Z,3.86
2018-09-25T03:45:28.817Z,3.85
2018-09-25T03:46:28.691Z,3.85
2018-09-25T03:47:28.598Z,3.86
2018-09-25T03:48:28.431Z,3.89
2018-09-25T03:49:28.299Z,3.88
2018-09-25T03:50:28.171Z,3.94
2018-09-25T03:51:28.041Z,3.90
2018-09-25T03:52:27.910Z,3.88
2018-09-25T03:53:27.787Z,3.94
2018-09-25T03:54:27.653Z,3.96
2018-09-25T03:55:27.522Z,3.86
2018-09-25T03:56:27.392Z,3.86
2018-09-25T03:57:27.263Z,3.89
2018-09-25T03:58:27.134Z,3.86
2018-09-25T03:59:27.114Z,3.89
2018-09-25T04:00:26.875Z,3.86
2018-09-25T04:01:26.747Z,3.78
2018-09-25T04:02:26.617Z,3.85
2018-09-25T04:03:26.487Z,3.86
2018-09-25T04:04:26.363Z,3.85
2018-09-25T04:05:26.229Z,3.85
2018-09-25T04:06:26.100Z,3.76
2018-09-25T04:07:25.969Z,3.54
2018-09-25T04:08:25.839Z,3.50
2018-09-25T04:09:25.709Z,3.43
2018-09-25T04:10:25.580Z,3.57
2018-09-25T04:11:25.451Z,3.57
2018-09-25T04:12:25.322Z,3.54
2018-09-25T04:13:25.199Z,3.49
2018-09-25T04:14:25.062Z,3.64
2018-09-25T04:15:24.933Z,3.61
2018-09-25T04:16:24.803Z,3.62
2018-09-25T04:17:24.675Z,3.72
2018-09-25T04:18:24.546Z,3.57
2018-09-25T04:19:24.416Z,3.65
2018-09-25T04:20:24.285Z,3.60
2018-09-25T04:21:24.157Z,3.75
2018-09-25T04:22:24.033Z,3.58
2018-09-25T04:23:23.897Z,3.54
2018-09-25T04:24:23.767Z,3.60
2018-09-25T04:25:23.637Z,3.60
2018-09-25T04:26:23.509Z,3.49
2018-09-25T04:27:23.380Z,3.65
2018-09-25T04:28:23.259Z,3.58
2018-09-25T04:29:23.274Z,3.65
2018-09-25T04:30:22.992Z,3.58
2018-09-25T04:31:22.860Z,3.64
2018-09-25T04:32:22.732Z,3.50
2018-09-25T04:33:22.603Z,3.60
2018-09-25T04:34:22.477Z,3.43
2018-09-25T04:35:22.349Z,3.57
2018-09-25T04:36:22.215Z,3.50
2018-09-25T04:37:22.090Z,3.50
2018-09-25T04:38:22.010Z,3.31
2018-09-25T04:39:21.824Z,3.30
2018-09-25T04:40:21.696Z,3.40
2018-09-25T04:41:21.566Z,3.34
2018-09-25T04:42:21.438Z,3.24
2018-09-25T04:43:21.306Z,3.30
2018-09-25T04:44:21.178Z,3.33
2018-09-25T04:45:21.048Z,3.27
2018-09-25T04:46:20.917Z,3.28
2018-09-25T04:47:20.789Z,3.23
2018-09-25T04:48:20.669Z,3.23
2018-09-25T04:49:20.529Z,3.28
2018-09-25T04:50:20.404Z,3.30
2018-09-25T04:51:20.268Z,3.28
2018-09-25T04:52:20.141Z,3.28
2018-09-25T04:53:20.011Z,3.30
2018-09-25T04:54:19.880Z,3.27
2018-09-25T04:55:19.750Z,3.27
2018-09-25T04:56:19.621Z,3.27
2018-09-25T04:57:19.492Z,3.18
2018-09-25T04:58:19.362Z,3.09
2018-09-25T04:59:19.232Z,3.00
2018-09-25T05:00:19.101Z,3.02
2018-09-25T05:01:18.970Z,2.97
2018-09-25T05:02:18.844Z,2.88
2018-09-25T05:03:18.711Z,2.87
2018-09-25T05:04:18.581Z,2.70
2018-09-25T05:05:18.449Z,2.69
2018-09-25T05:06:18.320Z,2.56
2018-09-25T05:07:18.190Z,2.61
2018-09-25T05:08:18.059Z,2.64
2018-09-25T05:09:17.933Z,2.70
2018-09-25T05:10:17.801Z,2.77
2018-09-25T05:11:17.671Z,2.77
2018-09-25T05:12:17.562Z,2.82
2018-09-25T05:13:17.411Z,2.79
2018-09-25T05:14:17.281Z,2.85
2018-09-25T05:15:17.155Z,2.94
2018-09-25T05:16:17.024Z,2.97
2018-09-25T05:17:16.895Z,2.84
2018-09-25T05:18:16.845Z,2.81
2018-09-25T05:19:16.633Z,2.82
2018-09-25T05:20:16.503Z,2.77
2018-09-25T05:21:16.373Z,2.67
2018-09-25T05:22:16.243Z,2.61
2018-09-25T05:23:16.156Z,2.67
2018-09-25T05:24:15.980Z,2.59
2018-09-25T05:25:15.853Z,2.66
2018-09-25T05:26:15.726Z,2.63
2018-09-25T05:27:15.592Z,2.66
2018-09-25T05:28:15.460Z,2.58
2018-09-25T05:29:15.334Z,2.51
2018-09-25T05:30:15.204Z,2.38
2018-09-25T05:31:15.073Z,2.28
2018-09-25T05:32:14.946Z,2.27
2018-09-25T05:33:14.812Z,2.28
2018-09-25T05:34:14.681Z,2.23
2018-09-25T05:35:14.552Z,2.31
2018-09-25T05:36:14.421Z,2.15
2018-09-25T05:37:14.291Z,2.15
2018-09-25T05:38:14.161Z,2.13
2018-09-25T05:39:14.031Z,2.08
2018-09-25T05:40:13.899Z,1.98
2018-09-25T05:41:13.769Z,1.99
2018-09-25T05:42:13.641Z,1.97
2018-09-25T05:43:13.512Z,1.99
2018-09-25T05:44:13.381Z,2.06
2018-09-25T05:45:13.250Z,2.09
2018-09-25T05:46:13.120Z,2.20
2018-09-25T05:47:12.989Z,2.28
2018-09-25T05:48:12.869Z,2.30
2018-09-25T05:49:12.727Z,2.28
2018-09-25T05:50:12.598Z,2.19
2018-09-25T05:51:12.464Z,2.31
2018-09-25T05:52:12.338Z,2.28
2018-09-25T05:53:12.207Z,2.30
2018-09-25T05:54:12.075Z,2.27
2018-09-25T05:55:11.943Z,2.23
2018-09-25T05:56:11.816Z,2.30
2018-09-25T05:57:11.684Z,2.31
2018-09-25T05:58:11.552Z,2.30
2018-09-25T05:59:11.421Z,2.33
2018-09-25T06:00:11.292Z,2.31
2018-09-25T06:01:11.161Z,2.30
2018-09-25T06:02:11.036Z,2.19
2018-09-25T06:03:10.898Z,2.16
2018-09-25T06:04:10.771Z,2.15
2018-09-25T06:05:10.639Z,2.06
2018-09-25T06:06:10.508Z,2.08
2018-09-25T06:07:10.376Z,2.12
2018-09-25T06:08:10.252Z,2.12
2018-09-25T06:09:10.148Z,2.27
2018-09-25T06:10:09.987Z,2.31
2018-09-25T06:11:09.856Z,2.30
2018-09-25T06:12:09.730Z,2.28
2018-09-25T06:13:09.595Z,2.44
2018-09-25T06:14:09.464Z,2.46
2018-09-25T06:15:09.333Z,2.44
2018-09-25T06:16:09.206Z,2.28
2018-09-25T06:17:09.072Z,2.27
2018-09-25T06:18:08.953Z,2.28
2018-09-25T06:19:08.813Z,2.33
2018-09-25T06:20:08.683Z,2.34
2018-09-25T06:21:08.552Z,2.40
2018-09-25T06:22:08.420Z,2.41
2018-09-25T06:23:08.365Z,2.28
2018-09-25T06:24:08.161Z,2.28
2018-09-25T06:25:08.029Z,2.34
2018-09-25T06:26:07.898Z,2.31
2018-09-25T06:27:07.767Z,2.35
2018-09-25T06:28:07.637Z,2.45
2018-09-25T06:29:07.508Z,2.52
2018-09-25T06:30:07.376Z,2.67
2018-09-25T06:31:07.248Z,2.69
2018-09-25T06:32:07.118Z,2.92
2018-09-25T06:33:06.985Z,3.15
2018-09-25T06:34:06.854Z,3.47
2018-09-25T06:35:06.725Z,3.71
2018-09-25T06:36:06.597Z,3.85
2018-09-25T06:37:06.514Z,4.07
2018-09-25T06:38:06.334Z,4.16
2018-09-25T06:39:06.207Z,4.33
2018-09-25T06:40:06.075Z,4.43
2018-09-25T06:41:05.947Z,4.65
2018-09-25T06:42:05.814Z,4.70
2018-09-25T06:43:05.685Z,4.80
2018-09-25T06:44:05.554Z,4.99
2018-09-25T06:45:05.425Z,5.19
2018-09-25T06:46:05.295Z,5.17
2018-09-25T06:47:05.210Z,5.25
2018-09-25T06:48:05.041Z,5.37
2018-09-25T06:49:04.908Z,5.49
2018-09-25T06:50:04.778Z,5.50
2018-09-25T06:51:04.650Z,5.53
2018-09-25T06:52:04.517Z,5.43
2018-09-25T06:53:04.391Z,5.45
2018-09-25T06:54:04.259Z,5.52
2018-09-25T06:55:04.257Z,5.52
2018-09-25T06:56:04.004Z,5.45
2018-09-25T06:57:03.872Z,5.34
2018-09-25T06:58:03.743Z,5.23
2018-09-25T06:59:03.617Z,5.14
2018-09-25T07:00:03.488Z,5.32
2018-09-25T07:01:03.480Z,5.40
2018-09-25T07:02:03.233Z,5.53
2018-09-25T07:03:03.099Z,5.59
2018-09-25T07:04:02.977Z,5.73
2018-09-25T07:05:02.841Z,5.92
2018-09-25T07:06:02.715Z,6.01
2018-09-25T07:07:02.584Z,6.11
2018-09-25T07:08:02.501Z,6.36
2018-09-25T07:09:02.349Z,6.47
2018-09-25T07:10:02.396Z,6.40
2018-09-25T07:11:02.071Z,6.40
2018-09-25T07:12:01.943Z,6.33
2018-09-25T07:13:01.815Z,6.01
2018-09-25T07:14:01.688Z,6.21
2018-09-25T07:15:01.558Z,6.36
2018-09-25T07:16:01.430Z,6.30
2018-09-25T07:17:01.303Z,6.46
2018-09-25T07:18:01.224Z,6.48
2018-09-25T07:19:01.045Z,6.36
2018-09-25T07:20:00.916Z,6.29
2018-09-25T07:21:00.787Z,6.28
2018-09-25T07:22:00.664Z,6.28
2018-09-25T07:23:00.533Z,6.36
2018-09-25T07:24:00.404Z,6.25
2018-09-25T07:25:00.331Z,6.33
2018-09-25T07:26:00.151Z,6.29
2018-09-25T07:27:00.024Z,6.30
2018-09-25T07:27:59.892Z,6.33
2018-09-25T07:28:59.765Z,6.47
2018-09-25T07:29:59.637Z,6.51
2018-09-25T07:30:59.535Z,6.63
2018-09-25T07:31:59.380Z,6.81
2018-09-25T07:32:59.253Z,6.71
2018-09-25T07:33:59.125Z,6.89
2018-09-25T07:34:58.998Z,6.72
2018-09-25T07:35:58.869Z,6.71
2018-09-25T07:36:58.745Z,6.80
2018-09-25T07:37:58.620Z,6.97
2018-09-25T07:38:58.485Z,7.05
2018-09-25T07:39:58.362Z,7.31
2018-09-25T07:40:58.233Z,7.35
2018-09-25T07:41:58.105Z,7.49
2018-09-25T07:42:57.977Z,7.78
2018-09-25T07:43:57.851Z,7.81
2018-09-25T07:44:57.724Z,7.69
2018-09-25T07:45:57.597Z,7.26
2018-09-25T07:46:57.468Z,7.32
2018-09-25T07:47:57.342Z,7.27
2018-09-25T07:48:57.217Z,7.34
2018-09-25T07:49:57.089Z,7.35
2018-09-25T07:50:56.960Z,7.45
2018-09-25T07:51:56.832Z,7.08
2018-09-25T07:52:56.711Z,6.95
2018-09-25T07:53:56.582Z,7.13
2018-09-25T07:54:56.454Z,7.31
2018-09-25T07:55:56.328Z,7.34
2018-09-25T07:56:56.201Z,7.35
2018-09-25T07:57:56.077Z,7.47
2018-09-25T07:58:55.946Z,7.56
2018-09-25T07:59:55.817Z,7.85
2018-09-25T08:00:55.693Z,7.85
2018-09-25T08:01:55.565Z,8.00
2018-09-25T08:02:55.440Z,8.26
2018-09-25T08:03:55.313Z,8.26
2018-09-25T08:04:55.188Z,8.45
2018-09-25T08:05:55.062Z,8.37
2018-09-25T08:06:54.932Z,8.63
2018-09-25T08:07:54.807Z,8.97
2018-09-25T08:08:54.714Z,9.28
2018-09-25T08:09:54.554Z,9.35
2018-09-25T08:10:54.428Z,8.88
2018-09-25T08:11:54.301Z,8.87
2018-09-25T08:12:54.177Z,8.83
2018-09-25T08:13:54.052Z,8.54
2018-09-25T08:14:53.926Z,8.51
2018-09-25T08:15:53.799Z,8.50
2018-09-25T08:16:53.673Z,8.63
2018-09-25T08:17:53.547Z,8.63
2018-09-25T08:18:53.420Z,8.55
2018-09-25T08:19:53.295Z,8.79
2018-09-25T08:20:53.171Z,8.81
2018-09-25T08:21:53.046Z,9.02
2018-09-25T08:22:52.920Z,9.38
2018-09-25T08:23:52.791Z,9.68
2018-09-25T08:24:52.667Z,9.75
2018-09-25T08:25:52.540Z,10.01
2018-09-25T08:26:52.415Z,9.61
2018-09-25T08:27:52.289Z,9.66
2018-09-25T08:28:52.165Z,9.48
2018-09-25T08:29:52.040Z,9.48
2018-09-25T08:30:51.914Z,9.27
2018-09-25T08:31:51.788Z,8.88
2018-09-25T08:32:51.664Z,8.96
2018-09-25T08:33:51.538Z,8.51
2018-09-25T08:34:51.443Z,8.84
2018-09-25T08:35:51.289Z,8.78
2018-09-25T08:36:51.169Z,8.90
2018-09-25T08:37:51.039Z,9.10
2018-09-25T08:38:50.992Z,9.23
2018-09-25T08:39:50.790Z,9.01
2018-09-25T08:40:50.667Z,9.31
2018-09-25T08:41:50.540Z,9.39
2018-09-25T08:42:50.413Z,9.34
2018-09-25T08:43:50.292Z,9.43
2018-09-25T08:44:50.164Z,9.76
2018-09-25T08:45:50.072Z,9.79
2018-09-25T08:46:49.909Z,9.94
2018-09-25T08:47:49.784Z,9.76
2018-09-25T08:48:49.661Z,10.07
2018-09-25T08:49:49.537Z,10.18
2018-09-25T08:50:49.415Z,9.83
2018-09-25T08:51:49.287Z,9.94
2018-09-25T08:52:49.160Z,9.94
2018-09-25T08:53:49.037Z,9.94
2018-09-25T08:54:48.912Z,9.86
2018-09-25T08:55:48.784Z,10.09
2018-09-25T08:56:48.665Z,9.85
2018-09-25T08:57:48.536Z,10.28
2018-09-25T08:58:48.411Z,10.74
2018-09-25T08:59:48.285Z,10.73
2018-09-25T09:00:48.177Z,10.42
2018-09-25T09:01:48.039Z,10.46
2018-09-25T09:02:47.914Z,10.30
2018-09-25T09:03:47.791Z,10.12
2018-09-25T09:04:47.664Z,10.26
2018-09-25T09:05:47.542Z,10.17
2018-09-25T09:06:47.416Z,10.24
2018-09-25T09:07:47.294Z,10.62
2018-09-25T09:08:47.169Z,11.03
2018-09-25T09:09:47.044Z,11.39
2018-09-25T09:10:46.919Z,11.27
2018-09-25T09:11:46.795Z,11.21
2018-09-25T09:12:46.674Z,11.20
2018-09-25T09:13:46.546Z,10.88
2018-09-25T09:14:46.422Z,11.19
2018-09-25T09:15:46.298Z,11.16
2018-09-25T09:16:46.175Z,10.92
2018-09-25T09:17:46.050Z,10.80
2018-09-25T09:18:45.925Z,10.92
2018-09-25T09:19:45.905Z,11.20
2018-09-25T09:20:45.677Z,11.16
2018-09-25T09:21:45.559Z,10.99
2018-09-25T09:22:45.429Z,11.11
2018-09-25T09:23:45.307Z,11.07
2018-09-25T09:24:45.182Z,11.25
2018-09-25T09:25:45.060Z,11.35
2018-09-25T09:26:44.933Z,11.52
2018-09-25T09:27:44.810Z,11.61
2018-09-25T09:28:44.688Z,11.35
2018-09-25T09:29:44.565Z,11.68
2018-09-25T09:30:44.439Z,11.82
2018-09-25T09:31:44.316Z,11.96
2018-09-25T09:32:44.199Z,12.01
2018-09-25T09:33:44.070Z,12.05
2018-09-25T09:34:43.944Z,11.68
2018-09-25T09:35:43.820Z,11.44
2018-09-25T09:36:43.697Z,11.43
2018-09-25T09:37:43.575Z,11.86
2018-09-25T09:38:43.450Z,12.06
2018-09-25T09:39:43.327Z,11.77
2018-09-25T09:40:43.204Z,11.99
2018-09-25T09:41:43.415Z,12.08
2018-09-25T09:42:42.958Z,12.48
2018-09-25T09:43:42.832Z,12.63
2018-09-25T09:44:42.710Z,11.25
2018-09-25T09:45:42.589Z,11.21
2018-09-25T09:46:42.466Z,11.06
2018-09-25T09:47:42.342Z,11.44
2018-09-25T09:48:42.218Z,12.08
2018-09-25T09:49:42.094Z,12.48
2018-09-25T09:50:41.975Z,12.38
2018-09-25T09:51:41.847Z,12.38
2018-09-25T09:52:41.729Z,12.49
2018-09-25T09:53:41.619Z,12.54
2018-09-25T09:54:41.479Z,12.11
2018-09-25T09:55:41.355Z,11.71
2018-09-25T09:56:41.233Z,11.80
2018-09-25T09:57:41.110Z,11.93
2018-09-25T09:58:40.987Z,12.13
2018-09-25T09:59:40.864Z,12.67
2018-09-25T10:00:40.739Z,13.12
2018-09-25T10:01:40.633Z,13.32
2018-09-25T10:02:40.493Z,13.14
2018-09-25T10:03:40.372Z,12.81
2018-09-25T10:04:40.248Z,12.78
2018-09-25T10:05:40.125Z,12.44
2018-09-25T10:06:40.064Z,12.31
2018-09-25T10:07:39.881Z,12.08
2018-09-25T10:08:39.757Z,12.44
2018-09-25T10:09:39.645Z,13.02
2018-09-25T10:10:39.522Z,13.41
2018-09-25T10:11:39.396Z,13.15
2018-09-25T10:12:39.273Z,13.17
2018-09-25T10:13:39.155Z,13.09
2018-09-25T10:14:39.027Z,13.38
2018-09-25T10:15:38.906Z,13.79
2018-09-25T10:16:38.804Z,14.17
2018-09-25T10:17:38.684Z,14.47
2018-09-25T10:18:38.546Z,14.10
2018-09-25T10:19:38.439Z,13.88
2018-09-25T10:20:38.317Z,13.99
2018-09-25T10:21:38.194Z,13.99
2018-09-25T10:22:38.072Z,13.92
2018-09-25T10:23:37.948Z,14.19
2018-09-25T10:24:37.826Z,14.57
2018-09-25T10:25:37.706Z,14.69
2018-09-25T10:26:37.583Z,14.21
2018-09-25T10:27:37.459Z,13.89
2018-09-25T10:28:37.339Z,13.71
2018-09-25T10:29:37.219Z,13.65
2018-09-25T10:30:37.094Z,13.47
2018-09-25T10:31:36.973Z,13.18
2018-09-25T10:32:36.850Z,13.24
2018-09-25T10:33:36.734Z,13.79
2018-09-25T10:34:36.606Z,14.09
2018-09-25T10:35:36.488Z,14.34
2018-09-25T10:36:36.364Z,14.43
2018-09-25T10:37:36.243Z,14.34
2018-09-25T10:38:36.118Z,13.76
2018-09-25T10:39:36.004Z,14.04
2018-09-25T10:40:35.874Z,14.19
2018-09-25T10:41:35.754Z,14.29
2018-09-25T10:42:35.634Z,14.35
2018-09-25T10:43:35.512Z,14.09
2018-09-25T10:44:35.387Z,13.83
2018-09-25T10:45:35.266Z,14.20
2018-09-25T10:46:35.143Z,14.06
2018-09-25T10:47:35.023Z,14.13
2018-09-25T10:48:34.899Z,14.37
2018-09-25T10:49:34.777Z,14.60
2018-09-25T10:50:34.655Z,14.68
2018-09-25T10:51:34.534Z,14.74
2018-09-25T10:52:34.415Z,14.99
2018-09-25T10:53:34.294Z,15.31
2018-09-25T10:54:34.169Z,15.11
2018-09-25T10:55:34.118Z,14.74
2018-09-25T10:56:33.925Z,14.91
2018-09-25T10:57:33.807Z,15.06
2018-09-25T10:58:33.688Z,15.26
2018-09-25T10:59:33.666Z,14.98
2018-09-25T11:00:33.556Z,14.75
2018-09-25T11:01:33.319Z,15.03
2018-09-25T11:02:33.197Z,14.87
2018-09-25T11:03:33.074Z,15.01
2018-09-25T11:04:32.955Z,15.24
2018-09-25T11:05:32.834Z,15.09
2018-09-25T11:06:32.710Z,15.08
2018-09-25T11:07:32.589Z,14.93
2018-09-25T11:08:32.471Z,15.02
2018-09-25T11:09:32.348Z,15.09
2018-09-25T11:10:32.223Z,14.74
2018-09-25T11:11:32.101Z,14.32
2018-09-25T11:12:31.980Z,14.17
2018-09-25T11:13:31.858Z,13.96
2018-09-25T11:14:31.736Z,13.92
2018-09-25T11:15:31.614Z,14.02
2018-09-25T11:16:31.503Z,14.06
2018-09-25T11:17:31.413Z,14.09
2018-09-25T11:18:31.249Z,14.09
2018-09-25T11:19:31.127Z,14.12
2018-09-25T11:20:31.005Z,14.19
2018-09-25T11:21:30.884Z,14.43
2018-09-25T11:22:30.763Z,14.47
2018-09-25T11:23:30.644Z,14.49
2018-09-25T11:24:30.513Z,14.52
2018-09-25T11:25:30.421Z,14.56
2018-09-25T11:26:30.269Z,14.60
2018-09-25T11:27:30.148Z,14.56
2018-09-25T11:28:30.037Z,14.56
2018-09-25T11:29:29.905Z,14.35
2018-09-25T11:30:29.782Z,14.28
2018-09-25T11:31:29.659Z,14.39
2018-09-25T11:32:29.535Z,14.07
2018-09-25T11:33:29.415Z,14.06
2018-09-25T11:34:29.291Z,13.96
2018-09-25T11:35:29.171Z,13.59
2018-09-25T11:36:29.046Z,13.69
2018-09-25T11:37:28.928Z,13.76
2018-09-25T11:38:28.798Z,13.83
2018-09-25T11:39:28.701Z,13.70
2018-09-25T11:40:28.555Z,13.44
2018-09-25T11:41:28.492Z,13.17
2018-09-25T11:42:28.309Z,13.30
2018-09-25T11:43:28.184Z,13.36
2018-09-25T11:44:28.064Z,13.25
2018-09-25T11:45:27.940Z,13.36
2018-09-25T11:46:27.820Z,13.29
2018-09-25T11:47:27.694Z,13.49
2018-09-25T11:48:27.571Z,13.56
2018-09-25T11:49:27.445Z,13.49
2018-09-25T11:50:27.328Z,13.67
2018-09-25T11:51:27.202Z,13.92
2018-09-25T11:52:27.084Z,13.87
2018-09-25T11:53:26.955Z,13.99
2018-09-25T11:54:26.832Z,13.99
2018-09-25T11:55:26.706Z,14.07
2018-09-25T11:56:26.653Z,14.10
2018-09-25T11:57:26.464Z,13.96
2018-09-25T11:58:26.395Z,13.81
2018-09-25T11:59:26.214Z,13.63
2018-09-25T12:00:26.094Z,13.55
2018-09-25T12:01:25.970Z,13.56
2018-09-25T12:02:25.846Z,13.76
2018-09-25T12:03:25.723Z,13.84
2018-09-25T12:04:25.648Z,13.55
2018-09-25T12:05:25.480Z,13.33
2018-09-25T12:06:25.355Z,13.43
2018-09-25T12:07:25.230Z,13.46
2018-09-25T12:08:25.105Z,13.71
2018-09-25T12:09:24.983Z,13.84
2018-09-25T12:10:24.859Z,13.74
2018-09-25T12:11:24.736Z,13.80
2018-09-25T12:12:24.613Z,13.94
2018-09-25T12:13:24.492Z,14.16
2018-09-25T12:14:24.369Z,14.21
2018-09-25T12:15:24.242Z,14.49
2018-09-25T12:16:24.123Z,14.57
2018-09-25T12:17:24.008Z,14.52
2018-09-25T12:18:23.873Z,14.57
2018-09-25T12:19:23.747Z,14.75
2018-09-25T12:20:23.628Z,14.81
2018-09-25T12:21:23.502Z,14.44
2018-09-25T12:22:23.379Z,14.20
2018-09-25T12:23:23.275Z,13.99
2018-09-25T12:24:23.232Z,14.17
2018-09-25T12:25:23.010Z,14.35
2018-09-25T12:26:22.887Z,14.14
2018-09-25T12:27:22.762Z,14.34
2018-09-25T12:28:22.639Z,14.56
2018-09-25T12:29:22.518Z,14.74
2018-09-25T12:30:22.393Z,14.67
2018-09-25T12:31:22.269Z,14.46
2018-09-25T12:32:22.183Z,14.46
2018-09-25T12:33:22.023Z,14.53
2018-09-25T12:34:21.898Z,14.32
2018-09-25T12:35:21.776Z,14.16
2018-09-25T12:36:21.655Z,14.13
2018-09-25T12:37:21.531Z,14.09
2018-09-25T12:38:21.407Z,14.39
2018-09-25T12:39:21.284Z,14.49
2018-09-25T12:40:21.162Z,14.42
2018-09-25T12:41:21.038Z,14.60
2018-09-25T12:42:20.911Z,14.52
2018-09-25T12:43:20.789Z,14.75
2018-09-25T12:44:20.666Z,14.72
2018-09-25T12:45:20.543Z,14.72
2018-09-25T12:46:20.419Z,14.67
2018-09-25T12:47:20.299Z,14.67
2018-09-25T12:48:20.175Z,14.50
2018-09-25T12:49:20.052Z,14.31
2018-09-25T12:50:19.928Z,14.37
2018-09-25T12:51:19.805Z,14.37
2018-09-25T12:52:19.686Z,14.60
2018-09-25T12:53:19.563Z,14.44
2018-09-25T12:54:19.435Z,14.62
2018-09-25T12:55:19.313Z,14.71
2018-09-25T12:56:19.191Z,14.46
2018-09-25T12:57:19.069Z,14.47
2018-09-25T12:58:18.948Z,14.52
2018-09-25T12:59:18.820Z,14.81
2018-09-25T13:00:18.699Z,15.31
2018-09-25T13:01:18.576Z,15.42
2018-09-25T13:02:18.452Z,15.81
2018-09-25T13:03:18.347Z,16.25
2018-09-25T13:04:18.207Z,16.14
2018-09-25T13:05:18.086Z,15.97
2018-09-25T13:06:17.966Z,15.89
2018-09-25T13:07:17.840Z,15.89
2018-09-25T13:08:17.718Z,16.01